Time;durP1;ratioP1;P1;durP2;ratioP2;P2;SDS_P1;SDS_P2;PMS_P1;PMS_P2;Temp;Humidity;BMP_temperature;BMP_pressure;BME280_temperature;BME280_humidity;BME280_pressure;Samples;Min_cycle;Max_cycle;Signal;HPM_P1;HPM_P2
2024/01/15 00:00:08;;;;;;;48.23;29.13;;;0.70;99.90;;;;;;5096365;28;20218;-62
2024/01/15 00:02:34;;;;;;;46.13;28.93;;;0.70;99.90;;;;;;5096330;28;20264;-62
2024/01/15 00:05:00;;;;;;;50.63;28.53;;;0.80;99.90;;;;;;5096544;28;20197;-62
2024/01/15 00:07:26;;;;;;;45.73;28.03;;;0.70;99.90;;;;;;5095973;28;20268;-62
2024/01/15 00:09:51;;;;;;;46.93;27.47;;;0.70;99.90;;;;;;5096682;28;20181;-62
2024/01/15 00:12:17;;;;;;;49.37;28.13;;;0.80;99.90;;;;;;5096093;28;20169;-62
2024/01/15 00:14:43;;;;;;;49.83;30.77;;;0.80;99.90;;;;;;5096374;28;20173;-61
2024/01/15 00:17:09;;;;;;;47.77;28.73;;;0.80;99.90;;;;;;5096256;28;20321;-62
2024/01/15 00:19:34;;;;;;;48.13;29.30;;;0.70;99.90;;;;;;5095922;28;20180;-63
2024/01/15 00:22:00;;;;;;;52.37;29.57;;;0.80;99.90;;;;;;5095715;28;20180;-62
2024/01/15 00:24:26;;;;;;;53.97;30.43;;;0.80;99.90;;;;;;5096347;28;20222;-62
2024/01/15 00:26:53;;;;;;;46.37;28.97;;;0.80;99.90;;;;;;5096037;28;20207;-62
2024/01/15 00:29:19;;;;;;;56.17;30.50;;;0.80;99.90;;;;;;5094784;28;20188;-62
2024/01/15 00:31:44;;;;;;;57.37;30.83;;;0.80;99.90;;;;;;5096004;28;20193;-62
2024/01/15 00:34:10;;;;;;;55.30;31.83;;;0.80;99.90;;;;;;5095903;28;20227;-62
2024/01/15 00:36:36;;;;;;;54.33;31.83;;;0.80;99.90;;;;;;5095357;28;20216;-61
2024/01/15 00:39:02;;;;;;;58.27;33.87;;;0.80;99.90;;;;;;5095584;28;20185;-61
2024/01/15 00:41:31;;;;;;;57.30;32.90;;;0.80;99.90;;;;;;5094354;28;20181;-62
2024/01/15 00:43:57;;;;;;;55.93;31.63;;;0.80;99.90;;;;;;5096012;28;20638;-62
2024/01/15 00:46:22;;;;;;;57.70;32.30;;;0.80;99.90;;;;;;5095669;28;20192;-62
2024/01/15 00:48:48;;;;;;;56.90;33.57;;;0.80;99.90;;;;;;5096031;28;20177;-62
2024/01/15 00:51:14;;;;;;;54.07;31.30;;;0.80;99.90;;;;;;5095461;28;20192;-62
2024/01/15 00:53:40;;;;;;;50.87;31.10;;;0.80;99.90;;;;;;5095016;28;20177;-62
2024/01/15 00:56:06;;;;;;;49.87;31.27;;;0.80;99.90;;;;;;5095174;28;20197;-62
2024/01/15 00:58:32;;;;;;;58.10;33.63;;;0.80;99.90;;;;;;5095091;28;20203;-61
2024/01/15 01:00:57;;;;;;;53.53;30.67;;;0.80;99.90;;;;;;5095126;28;20180;-62
2024/01/15 01:03:23;;;;;;;58.17;33.63;;;0.90;99.90;;;;;;5095189;28;20201;-62
2024/01/15 01:05:52;;;;;;;52.67;33.60;;;0.90;99.90;;;;;;5095342;28;20547;-62
2024/01/15 01:08:18;;;;;;;58.57;32.97;;;0.80;99.90;;;;;;5093633;28;20276;-62
2024/01/15 01:10:43;;;;;;;55.83;32.13;;;0.90;99.90;;;;;;5095340;28;20200;-62
2024/01/15 01:13:09;;;;;;;52.30;32.20;;;0.90;99.90;;;;;;5094993;28;20634;-63
2024/01/15 01:15:35;;;;;;;57.30;34.37;;;0.90;99.90;;;;;;5095400;28;20249;-62
2024/01/15 01:18:01;;;;;;;53.10;31.43;;;0.90;99.90;;;;;;5094724;28;20612;-63
2024/01/15 01:20:27;;;;;;;57.63;33.57;;;0.90;99.90;;;;;;5095030;28;20177;-62
2024/01/15 01:22:52;;;;;;;52.80;32.17;;;0.90;99.90;;;;;;5094721;28;20181;-62
2024/01/15 01:25:19;;;;;;;52.97;31.30;;;0.90;99.90;;;;;;5095029;28;20217;-63
2024/01/15 01:27:44;;;;;;;52.57;32.70;;;0.90;99.90;;;;;;5093487;28;20280;-62
2024/01/15 01:30:10;;;;;;;57.13;30.77;;;0.90;99.90;;;;;;5094815;28;20216;-63
2024/01/15 01:32:36;;;;;;;54.53;31.83;;;0.90;99.90;;;;;;5094647;28;20182;-62
2024/01/15 01:35:02;;;;;;;56.20;33.13;;;0.90;99.90;;;;;;5095055;28;20184;-62
2024/01/15 01:37:28;;;;;;;54.70;31.00;;;1.00;99.90;;;;;;5094263;28;20241;-63
2024/01/15 01:39:53;;;;;;;57.13;32.00;;;1.00;99.90;;;;;;5094353;28;20231;-62
2024/01/15 01:42:19;;;;;;;54.07;32.40;;;0.90;99.90;;;;;;5094904;28;20550;-63
2024/01/15 01:44:45;;;;;;;54.20;32.00;;;0.90;99.90;;;;;;5094316;28;20173;-62
2024/01/15 01:47:11;;;;;;;52.03;31.43;;;0.90;99.90;;;;;;5094416;28;20193;-62
2024/01/15 01:49:37;;;;;;;56.57;31.97;;;0.90;99.90;;;;;;5094562;28;20548;-62
2024/01/15 01:52:05;;;;;;;50.43;30.60;;;0.90;99.90;;;;;;5093616;28;20639;-62
2024/01/15 01:54:32;;;;;;;51.43;32.87;;;0.90;99.90;;;;;;5094353;28;20222;-62
2024/01/15 01:56:59;;;;;;;57.50;33.47;;;0.90;99.90;;;;;;5094068;28;20215;-62
2024/01/15 01:59:29;;;;;;;55.37;32.17;;;0.90;99.90;;;;;;5093718;28;20181;-62
2024/01/15 02:01:55;;;;;;;56.37;31.83;;;0.90;99.90;;;;;;5094137;28;20177;-62
2024/01/15 02:04:23;;;;;;;58.60;31.67;;;0.90;99.90;;;;;;5094386;28;20181;-63
2024/01/15 02:06:50;;;;;;;57.63;32.03;;;0.90;99.90;;;;;;5093712;28;20662;-62
2024/01/15 02:09:20;;;;;;;50.47;30.53;;;1.00;99.90;;;;;;5093818;28;20242;-62
2024/01/15 02:11:49;;;;;;;51.43;30.97;;;0.90;99.90;;;;;;5093928;28;20178;-62
2024/01/15 02:14:15;;;;;;;56.40;30.57;;;0.90;99.90;;;;;;5094335;28;20283;-62
2024/01/15 02:16:41;;;;;;;56.57;30.97;;;0.90;99.90;;;;;;5093767;28;20216;-62
2024/01/15 02:19:07;;;;;;;48.17;29.90;;;1.00;99.90;;;;;;5093997;28;20177;-63
2024/01/15 02:21:32;;;;;;;57.03;31.10;;;1.00;99.90;;;;;;5094151;28;20171;-62
2024/01/15 02:23:59;;;;;;;48.83;29.53;;;1.00;99.90;;;;;;5093664;28;20185;-62
2024/01/15 02:26:26;;;;;;;49.60;28.90;;;1.00;99.90;;;;;;5093650;28;20177;-61
2024/01/15 02:28:52;;;;;;;50.80;28.30;;;1.00;99.90;;;;;;5093565;28;20173;-62
2024/01/15 02:31:17;;;;;;;48.97;29.00;;;1.00;99.90;;;;;;5093448;28;20230;-62
2024/01/15 02:33:45;;;;;;;41.93;26.53;;;1.00;99.90;;;;;;5093559;28;20188;-62
2024/01/15 02:36:12;;;;;;;55.67;28.43;;;1.00;99.90;;;;;;5093326;28;20193;-61
2024/01/15 02:38:38;;;;;;;51.93;27.20;;;1.00;99.90;;;;;;5093159;28;20591;-61
2024/01/15 02:41:04;;;;;;;42.60;27.00;;;1.00;99.90;;;;;;5093544;28;20173;-63
2024/01/15 02:43:29;;;;;;;40.17;25.00;;;1.00;99.90;;;;;;5093285;28;20206;-62
2024/01/15 02:45:55;;;;;;;42.90;26.10;;;0.90;99.90;;;;;;5093490;28;20173;-62
2024/01/15 02:48:21;;;;;;;38.37;27.20;;;1.00;99.90;;;;;;5093504;28;20200;-62
2024/01/15 02:50:47;;;;;;;40.20;26.50;;;1.00;99.90;;;;;;5093331;28;20192;-62
2024/01/15 02:53:12;;;;;;;44.13;25.33;;;1.00;99.90;;;;;;5093245;28;20208;-62
2024/01/15 02:55:38;;;;;;;41.73;26.83;;;0.90;99.90;;;;;;5093345;28;20193;-62
2024/01/15 02:58:04;;;;;;;41.57;26.10;;;0.90;99.90;;;;;;5093185;28;20217;-62
2024/01/15 03:00:30;;;;;;;38.70;24.83;;;0.90;99.90;;;;;;5093631;28;20260;-62
2024/01/15 03:02:56;;;;;;;42.77;26.53;;;0.90;99.90;;;;;;5091909;28;20227;-62
2024/01/15 03:05:22;;;;;;;42.67;26.40;;;0.90;99.90;;;;;;5097373;28;20173;-61
2024/01/15 03:07:47;;;;;;;51.23;26.07;;;0.90;99.90;;;;;;5096981;28;20287;-62
2024/01/15 03:10:13;;;;;;;42.50;27.53;;;0.90;99.90;;;;;;5097652;28;20260;-62
2024/01/15 03:12:39;;;;;;;45.03;26.03;;;0.90;99.90;;;;;;5097457;28;20234;-63
2024/01/15 03:15:05;;;;;;;50.70;25.63;;;0.90;99.90;;;;;;5097222;28;20173;-62
2024/01/15 03:17:31;;;;;;;48.17;26.87;;;0.90;99.90;;;;;;5095680;28;20590;-62
2024/01/15 03:19:57;;;;;;;44.77;26.80;;;0.90;99.90;;;;;;5097081;28;20180;-62
2024/01/15 03:22:22;;;;;;;44.80;26.37;;;0.90;99.90;;;;;;5096972;28;20185;-62
2024/01/15 03:24:48;;;;;;;38.13;25.60;;;0.90;99.90;;;;;;5096973;28;20173;-62
2024/01/15 03:27:14;;;;;;;47.40;27.47;;;0.90;99.90;;;;;;5097052;28;20207;-62
2024/01/15 03:29:41;;;;;;;47.03;27.17;;;0.90;99.90;;;;;;5097170;28;20215;-62
2024/01/15 03:32:06;;;;;;;44.50;27.50;;;0.90;99.90;;;;;;5097076;28;20343;-62
2024/01/15 03:34:32;;;;;;;39.57;25.73;;;0.90;99.90;;;;;;5096874;28;20640;-62
2024/01/15 03:36:59;;;;;;;39.17;25.77;;;1.00;99.90;;;;;;5096648;28;20289;-59
2024/01/15 03:39:25;;;;;;;46.43;26.53;;;0.90;99.90;;;;;;5097283;28;20186;-62
2024/01/15 03:41:50;;;;;;;44.20;26.37;;;0.90;99.90;;;;;;5096734;28;20256;-62
2024/01/15 03:44:16;;;;;;;42.97;26.00;;;1.00;99.90;;;;;;5096929;28;20678;-62
2024/01/15 03:46:42;;;;;;;41.67;26.30;;;0.90;99.90;;;;;;5096678;28;20767;-61
2024/01/15 03:49:08;;;;;;;41.47;26.33;;;0.90;99.90;;;;;;5096690;28;20665;-62
2024/01/15 03:51:33;;;;;;;43.60;25.73;;;0.90;99.90;;;;;;5096505;28;20193;-62
2024/01/15 03:53:59;;;;;;;44.87;26.50;;;0.90;99.90;;;;;;5096515;28;20192;-62
2024/01/15 03:56:25;;;;;;;42.50;27.83;;;1.00;99.90;;;;;;5096243;28;20620;-62
2024/01/15 03:58:51;;;;;;;39.53;24.23;;;0.90;99.90;;;;;;5096541;28;20256;-62
2024/01/15 04:01:16;;;;;;;43.40;25.10;;;0.90;99.90;;;;;;5096485;28;20638;-62
2024/01/15 04:03:42;;;;;;;40.53;26.20;;;0.90;99.90;;;;;;5096403;28;20630;-62
2024/01/15 04:06:08;;;;;;;45.13;25.73;;;1.00;99.90;;;;;;5096321;28;20206;-62
2024/01/15 04:08:34;;;;;;;41.47;26.63;;;1.00;99.90;;;;;;5096228;28;20207;-62
2024/01/15 04:10:59;;;;;;;43.50;25.70;;;1.00;99.90;;;;;;5096993;28;20645;-63
2024/01/15 04:13:27;;;;;;;41.77;24.63;;;1.00;99.90;;;;;;5096351;28;20582;-62
2024/01/15 04:15:52;;;;;;;42.00;26.97;;;1.00;99.90;;;;;;5095521;28;20197;-62
2024/01/15 04:18:18;;;;;;;44.97;25.40;;;1.00;99.90;;;;;;5096313;28;20223;-62
2024/01/15 04:20:44;;;;;;;33.67;24.00;;;1.00;99.90;;;;;;5095931;28;20177;-62
2024/01/15 04:23:10;;;;;;;43.17;23.17;;;1.10;99.90;;;;;;5094530;28;20201;-63
2024/01/15 04:25:36;;;;;;;37.07;24.23;;;1.10;99.90;;;;;;5096076;28;20550;-63
2024/01/15 04:28:02;;;;;;;35.20;23.77;;;1.10;99.90;;;;;;5096305;28;20197;-62
2024/01/15 04:30:27;;;;;;;31.27;22.03;;;1.10;99.90;;;;;;5095762;28;20188;-62
2024/01/15 04:32:53;;;;;;;33.07;23.50;;;1.10;99.90;;;;;;5095901;28;20176;-62
2024/01/15 04:35:19;;;;;;;34.20;22.63;;;1.10;99.90;;;;;;5095773;28;20170;-63
2024/01/15 04:37:45;;;;;;;32.17;22.87;;;1.10;99.90;;;;;;5095413;28;20661;-62
2024/01/15 04:40:11;;;;;;;36.63;23.73;;;1.10;99.90;;;;;;5095713;28;20177;-63
2024/01/15 04:42:36;;;;;;;37.33;23.23;;;1.10;99.90;;;;;;5096130;28;20177;-62
2024/01/15 04:45:03;;;;;;;34.57;21.90;;;1.10;99.90;;;;;;5096181;28;20177;-62
2024/01/15 04:47:29;;;;;;;32.20;22.67;;;1.10;99.90;;;;;;5095414;28;20280;-62
2024/01/15 04:49:55;;;;;;;38.73;21.77;;;1.10;99.90;;;;;;5094364;28;20192;-62
2024/01/15 04:52:20;;;;;;;35.03;20.53;;;1.10;99.90;;;;;;5095301;28;20193;-61
2024/01/15 04:54:46;;;;;;;34.30;23.13;;;1.10;99.90;;;;;;5095391;28;20541;-62
2024/01/15 04:57:12;;;;;;;38.20;22.53;;;1.10;99.90;;;;;;5095458;28;20839;-62
2024/01/15 04:59:38;;;;;;;32.43;21.03;;;1.10;99.90;;;;;;5095205;28;20169;-62
2024/01/15 05:02:03;;;;;;;36.23;21.97;;;1.10;99.90;;;;;;5095059;28;20185;-63
2024/01/15 05:04:29;;;;;;;30.87;21.93;;;1.10;99.90;;;;;;5095090;28;20173;-62
2024/01/15 05:06:55;;;;;;;32.30;21.40;;;1.10;99.90;;;;;;5095472;28;20230;-63
2024/01/15 05:09:21;;;;;;;34.93;21.03;;;1.00;99.90;;;;;;5094862;28;20574;-62
2024/01/15 05:11:47;;;;;;;33.10;22.40;;;1.10;99.90;;;;;;5095040;28;20199;-63
2024/01/15 05:14:13;;;;;;;33.57;20.40;;;1.10;99.90;;;;;;5095124;28;20271;-62
2024/01/15 05:16:39;;;;;;;34.90;21.37;;;1.10;99.90;;;;;;5094983;28;20681;-62
2024/01/15 05:19:07;;;;;;;27.90;19.77;;;1.10;99.90;;;;;;5094848;28;20630;-62
2024/01/15 05:21:33;;;;;;;27.07;19.23;;;1.20;99.90;;;;;;5094406;28;20193;-63
2024/01/15 05:23:59;;;;;;;26.77;20.50;;;1.20;99.90;;;;;;5094595;28;20293;-63
2024/01/15 05:26:24;;;;;;;28.33;19.17;;;1.20;99.90;;;;;;5093956;28;20288;-62
2024/01/15 05:28:50;;;;;;;25.60;19.63;;;1.20;99.90;;;;;;5094588;28;20177;-62
2024/01/15 05:31:16;;;;;;;32.30;20.57;;;1.20;99.90;;;;;;5094676;28;20255;-62
2024/01/15 05:33:41;;;;;;;34.60;20.53;;;1.20;99.90;;;;;;5094859;28;20216;-62
2024/01/15 05:36:07;;;;;;;28.97;20.07;;;1.20;99.90;;;;;;5094576;28;20204;-62
2024/01/15 05:38:33;;;;;;;29.37;19.23;;;1.20;99.90;;;;;;5094072;28;20246;-62
2024/01/15 05:40:59;;;;;;;34.97;20.23;;;1.20;99.90;;;;;;5094746;28;20635;-62
2024/01/15 05:43:24;;;;;;;31.33;20.23;;;1.20;99.90;;;;;;5094442;28;20634;-62
2024/01/15 05:45:50;;;;;;;32.53;21.23;;;1.20;99.90;;;;;;5094412;28;20181;-63
2024/01/15 05:48:16;;;;;;;33.50;20.53;;;1.30;99.90;;;;;;5094256;28;20204;-63
2024/01/15 05:50:42;;;;;;;32.17;20.23;;;1.20;99.90;;;;;;5094002;28;20747;-63
2024/01/15 05:53:07;;;;;;;33.77;21.70;;;1.20;99.90;;;;;;5093876;28;20225;-63
2024/01/15 05:55:35;;;;;;;33.33;20.80;;;1.20;99.90;;;;;;5092714;28;20183;-63
2024/01/15 05:58:00;;;;;;;33.97;21.90;;;1.20;99.90;;;;;;5094003;28;20192;-63
2024/01/15 06:00:26;;;;;;;36.73;21.57;;;1.20;99.90;;;;;;5094017;28;20264;-62
2024/01/15 06:02:52;;;;;;;30.83;22.33;;;1.20;99.90;;;;;;5094139;28;20653;-64
2024/01/15 06:05:18;;;;;;;35.30;20.50;;;1.20;99.90;;;;;;5092816;28;20178;-63
2024/01/15 06:07:44;;;;;;;32.63;22.07;;;1.20;99.90;;;;;;5093716;28;20204;-63
2024/01/15 06:10:09;;;;;;;34.03;22.33;;;1.30;99.90;;;;;;5094170;28;20250;-64
2024/01/15 06:12:35;;;;;;;36.30;22.17;;;1.30;99.90;;;;;;5094003;28;20212;-63
2024/01/15 06:15:02;;;;;;;28.17;19.70;;;1.20;99.90;;;;;;5093962;28;20177;-64
2024/01/15 06:17:27;;;;;;;33.23;22.03;;;1.20;99.90;;;;;;5093958;28;20638;-64
2024/01/15 06:19:53;;;;;;;34.70;22.07;;;1.20;99.90;;;;;;5093746;28;20203;-63
2024/01/15 06:22:19;;;;;;;29.87;20.33;;;1.20;99.90;;;;;;5093908;28;20204;-63
2024/01/15 06:24:45;;;;;;;28.03;20.60;;;1.20;99.90;;;;;;5093544;28;20169;-63
2024/01/15 06:27:10;;;;;;;29.00;20.97;;;1.20;99.90;;;;;;5094113;28;20201;-64
2024/01/15 06:29:38;;;;;;;31.37;20.40;;;1.20;99.90;;;;;;5093747;28;20204;-63
2024/01/15 06:32:04;;;;;;;32.07;19.67;;;1.20;99.90;;;;;;5093464;28;20192;-64
2024/01/15 06:34:30;;;;;;;35.40;22.07;;;1.20;99.90;;;;;;5094204;28;20630;-63
2024/01/15 06:36:56;;;;;;;31.83;20.67;;;1.20;99.90;;;;;;5093070;28;20295;-63
2024/01/15 06:39:22;;;;;;;30.00;19.80;;;1.20;99.90;;;;;;5093513;28;20180;-64
2024/01/15 06:41:47;;;;;;;34.83;21.53;;;1.20;99.90;;;;;;5093484;28;20575;-63
2024/01/15 06:44:13;;;;;;;28.23;19.97;;;1.30;99.90;;;;;;5092507;28;20185;-63
2024/01/15 06:46:43;;;;;;;27.27;18.90;;;1.20;99.90;;;;;;5091926;28;20197;-63
2024/01/15 06:49:09;;;;;;;27.37;19.80;;;1.20;99.90;;;;;;5093296;28;20170;-63
2024/01/15 06:51:35;;;;;;;28.37;19.57;;;1.30;99.90;;;;;;5091741;28;20581;-63
2024/01/15 06:54:02;;;;;;;24.93;19.10;;;1.20;99.90;;;;;;5093037;28;20185;-64
2024/01/15 06:56:27;;;;;;;27.17;19.73;;;1.20;99.90;;;;;;5093057;28;20227;-63
2024/01/15 06:58:53;;;;;;;29.20;20.27;;;1.20;99.90;;;;;;5093155;28;20208;-63
2024/01/15 07:01:19;;;;;;;33.73;20.80;;;1.20;99.90;;;;;;5093106;28;20192;-63
2024/01/15 07:03:45;;;;;;;26.83;18.60;;;1.30;99.90;;;;;;5093194;28;20199;-63
2024/01/15 07:06:11;;;;;;;25.60;18.53;;;1.20;99.90;;;;;;5093121;28;20184;-63
2024/01/15 07:08:38;;;;;;;38.37;21.10;;;1.30;99.90;;;;;;5092809;28;20652;-63
2024/01/15 07:11:04;;;;;;;26.57;19.80;;;1.20;99.90;;;;;;5093056;28;20184;-63
2024/01/15 07:13:30;;;;;;;31.87;20.00;;;1.30;99.90;;;;;;5091818;28;20188;-63
2024/01/15 07:15:56;;;;;;;37.20;20.00;;;1.30;99.90;;;;;;5092919;28;20188;-64
2024/01/15 07:18:23;;;;;;;33.80;20.90;;;1.30;99.90;;;;;;5092872;28;20227;-63
2024/01/15 07:20:49;;;;;;;36.50;20.97;;;1.30;99.90;;;;;;5093189;28;20641;-63
2024/01/15 07:23:14;;;;;;;26.67;19.33;;;1.30;99.90;;;;;;5092857;28;20174;-63
2024/01/15 07:25:40;;;;;;;29.57;21.00;;;1.30;99.90;;;;;;5092832;28;20174;-63
2024/01/15 07:28:06;;;;;;;26.13;19.47;;;1.30;99.90;;;;;;5092743;28;20654;-63
2024/01/15 07:30:32;;;;;;;31.03;20.53;;;1.30;99.90;;;;;;5092845;28;20268;-64
2024/01/15 07:32:58;;;;;;;29.40;19.83;;;1.30;99.90;;;;;;5093359;28;20212;-64
2024/01/15 07:35:23;;;;;;;28.90;20.43;;;1.30;99.90;;;;;;5092811;28;20174;-63
2024/01/15 07:37:49;;;;;;;30.60;19.73;;;1.30;99.90;;;;;;5092637;28;20280;-63
2024/01/15 07:40:16;;;;;;;30.57;20.73;;;1.30;99.90;;;;;;5091466;28;20662;-63
2024/01/15 07:42:42;;;;;;;26.77;20.37;;;1.30;99.90;;;;;;5091532;28;20173;-63
2024/01/15 07:45:09;;;;;;;24.97;19.43;;;1.30;99.90;;;;;;5091490;28;20178;-63
2024/01/15 07:47:35;;;;;;;25.80;19.70;;;1.30;99.90;;;;;;5092545;28;20205;-63
2024/01/15 07:50:01;;;;;;;26.00;19.93;;;1.30;99.90;;;;;;5094399;28;20184;-63
2024/01/15 07:52:27;;;;;;;29.30;20.87;;;1.30;99.90;;;;;;5096412;28;20212;-63
2024/01/15 07:54:52;;;;;;;28.77;19.07;;;1.30;99.90;;;;;;5096160;28;20239;-63
2024/01/15 07:57:18;;;;;;;30.30;20.13;;;1.30;99.90;;;;;;5096370;28;20204;-63
2024/01/15 07:59:44;;;;;;;28.10;20.97;;;1.30;99.90;;;;;;5096263;28;20195;-63
2024/01/15 08:02:10;;;;;;;29.70;20.93;;;1.30;99.90;;;;;;5096292;28;20185;-62
2024/01/15 08:04:38;;;;;;;25.50;20.33;;;1.30;99.90;;;;;;5096166;28;20223;-63
2024/01/15 08:07:05;;;;;;;23.47;19.00;;;1.30;99.90;;;;;;5096794;28;20193;-64
2024/01/15 08:09:31;;;;;;;24.63;19.57;;;1.30;99.90;;;;;;5094536;28;20219;-64
2024/01/15 08:11:57;;;;;;;25.47;19.17;;;1.30;99.90;;;;;;5094841;28;20199;-64
2024/01/15 08:14:23;;;;;;;22.57;18.10;;;1.30;99.90;;;;;;5096004;28;20181;-64
2024/01/15 08:16:48;;;;;;;26.47;19.20;;;1.30;99.90;;;;;;5094562;28;20213;-63
2024/01/15 08:19:14;;;;;;;24.83;17.63;;;1.30;99.90;;;;;;5096188;28;20555;-63
2024/01/15 08:21:40;;;;;;;20.37;18.17;;;1.30;99.90;;;;;;5095835;28;20663;-64
2024/01/15 08:24:06;;;;;;;26.10;18.23;;;1.20;99.90;;;;;;5095556;28;20219;-63
2024/01/15 08:26:32;;;;;;;22.70;16.30;;;1.20;99.90;;;;;;5095701;28;20288;-63
2024/01/15 08:28:58;;;;;;;20.63;17.27;;;1.20;99.90;;;;;;5096061;28;20176;-63
2024/01/15 08:31:24;;;;;;;22.03;17.33;;;1.20;99.90;;;;;;5095649;28;20188;-63
2024/01/15 08:33:50;;;;;;;18.70;16.23;;;1.20;99.90;;;;;;5095919;28;20185;-63
2024/01/15 08:36:16;;;;;;;25.87;17.63;;;1.20;99.90;;;;;;5095705;28;20246;-62
2024/01/15 08:38:42;;;;;;;20.23;16.93;;;1.20;99.90;;;;;;5095210;28;20268;-63
2024/01/15 08:41:09;;;;;;;22.67;17.70;;;1.20;99.90;;;;;;5095825;28;20173;-63
2024/01/15 08:43:35;;;;;;;23.27;17.60;;;1.20;99.90;;;;;;5095427;28;20177;-63
2024/01/15 08:46:01;;;;;;;27.23;19.23;;;1.20;99.90;;;;;;5095449;28;20546;-63
2024/01/15 08:48:27;;;;;;;26.53;19.00;;;1.20;99.90;;;;;;5094051;28;20201;-64
2024/01/15 08:50:54;;;;;;;26.10;19.30;;;1.20;99.90;;;;;;5095182;28;20366;-63
2024/01/15 08:53:20;;;;;;;22.53;18.53;;;1.20;99.90;;;;;;5094993;28;20181;-63
2024/01/15 08:55:46;;;;;;;25.07;18.33;;;1.10;99.90;;;;;;5095136;28;20177;-63
2024/01/15 08:58:12;;;;;;;23.97;18.90;;;1.00;99.90;;;;;;5095158;28;20276;-63
2024/01/15 09:00:37;;;;;;;24.57;18.43;;;1.00;99.90;;;;;;5094977;28;20177;-63
2024/01/15 09:03:04;;;;;;;24.37;19.33;;;1.00;99.90;;;;;;5095067;28;20601;-63
2024/01/15 09:05:29;;;;;;;23.97;17.80;;;1.00;99.90;;;;;;5094986;28;20175;-63
2024/01/15 09:07:56;;;;;;;19.23;15.77;;;0.90;99.90;;;;;;5094910;28;20276;-63
2024/01/15 09:10:21;;;;;;;22.60;17.27;;;0.90;99.90;;;;;;5094618;28;20181;-63
2024/01/15 09:12:49;;;;;;;19.77;17.00;;;0.90;99.90;;;;;;5095476;28;20169;-63
2024/01/15 09:15:15;;;;;;;19.87;16.93;;;0.90;99.90;;;;;;5094776;28;20196;-64
2024/01/15 09:17:40;;;;;;;19.87;17.13;;;0.90;99.90;;;;;;5094633;28;20262;-63
2024/01/15 09:20:07;;;;;;;21.43;15.83;;;0.80;99.90;;;;;;5094715;28;20169;-64
2024/01/15 09:22:33;;;;;;;18.33;16.37;;;0.90;99.90;;;;;;5095222;28;20285;-63
2024/01/15 09:24:59;;;;;;;19.77;17.17;;;0.90;99.90;;;;;;5094585;28;20644;-63
2024/01/15 09:27:28;;;;;;;18.67;16.67;;;0.90;99.90;;;;;;5094571;28;20200;-63
2024/01/15 09:29:54;;;;;;;19.13;16.80;;;0.90;99.90;;;;;;5093265;28;20173;-62
2024/01/15 09:32:20;;;;;;;19.03;16.90;;;1.00;99.90;;;;;;5094538;28;20551;-63
2024/01/15 09:34:49;;;;;;;19.27;15.80;;;1.10;99.90;;;;;;5094537;28;20172;-63
2024/01/15 09:37:15;;;;;;;18.30;16.23;;;1.10;99.90;;;;;;5094284;28;20254;-63
2024/01/15 09:39:41;;;;;;;20.57;17.20;;;1.10;99.90;;;;;;5094132;28;20169;-63
2024/01/15 09:42:08;;;;;;;18.67;16.37;;;1.10;99.90;;;;;;5094529;28;20177;-63
2024/01/15 09:44:34;;;;;;;19.77;17.17;;;1.10;99.90;;;;;;5094247;28;20212;-63
2024/01/15 09:47:00;;;;;;;21.57;17.90;;;1.10;99.90;;;;;;5094660;28;20232;-64
2024/01/15 09:49:25;;;;;;;19.13;16.40;;;1.10;99.90;;;;;;5094843;28;20179;-63
2024/01/15 09:51:52;;;;;;;21.53;17.57;;;1.00;99.90;;;;;;5094073;28;20271;-63
2024/01/15 09:54:18;;;;;;;18.80;16.63;;;1.00;99.90;;;;;;5092763;28;20264;-63
2024/01/15 09:56:47;;;;;;;21.67;16.67;;;1.00;99.90;;;;;;5094058;28;20670;-63
2024/01/15 09:59:18;;;;;;;21.60;18.00;;;1.00;99.90;;;;;;5093902;28;20761;-64
2024/01/15 10:01:45;;;;;;;20.97;17.13;;;1.00;99.90;;;;;;5093930;28;20189;-64
2024/01/15 10:04:14;;;;;;;22.83;16.87;;;1.00;99.90;;;;;;5094172;28;20255;-64
2024/01/15 10:06:48;;;;;;;22.03;16.97;;;1.00;99.90;;;;;;5093835;28;20236;-64
2024/01/15 10:09:14;;;;;;;21.53;17.97;;;1.00;99.90;;;;;;5093926;28;20644;-64
2024/01/15 10:11:42;;;;;;;21.80;16.50;;;1.00;99.90;;;;;;5093540;28;20646;-63
2024/01/15 10:14:09;;;;;;;22.07;16.90;;;0.90;99.90;;;;;;5093581;28;20235;-63
2024/01/15 10:16:35;;;;;;;21.47;17.63;;;0.90;99.90;;;;;;5093576;28;20270;-64
2024/01/15 10:19:01;;;;;;;24.10;19.37;;;0.90;99.90;;;;;;5093789;28;20582;-63
2024/01/15 10:21:27;;;;;;;19.87;16.10;;;0.80;99.90;;;;;;5094204;28;20621;-63
2024/01/15 10:23:53;;;;;;;18.70;15.97;;;0.90;99.90;;;;;;5093330;28;20258;-63
2024/01/15 10:26:25;;;;;;;20.07;16.00;;;0.80;99.90;;;;;;5093770;28;20177;-63
2024/01/15 10:28:54;;;;;;;16.43;14.73;;;0.80;99.90;;;;;;5093837;28;20165;-63
2024/01/15 10:31:21;;;;;;;15.43;13.93;;;0.80;99.90;;;;;;5093543;28;20578;-63
2024/01/15 10:33:50;;;;;;;15.27;13.47;;;0.80;99.90;;;;;;5093464;28;20177;-63
2024/01/15 10:36:17;;;;;;;15.83;14.20;;;0.80;99.90;;;;;;5093562;28;20649;-63
2024/01/15 10:38:47;;;;;;;14.53;13.13;;;0.80;99.90;;;;;;5093226;28;20316;-62
2024/01/15 10:41:12;;;;;;;14.87;13.37;;;0.80;99.90;;;;;;5093383;28;20173;-63
2024/01/15 10:43:41;;;;;;;16.07;14.27;;;0.80;99.90;;;;;;5093632;28;20172;-63
2024/01/15 10:46:07;;;;;;;15.07;13.47;;;0.90;99.90;;;;;;5093556;28;20627;-63
2024/01/15 10:48:35;;;;;;;15.33;13.73;;;0.90;99.90;;;;;;5093201;28;20201;-63
2024/01/15 10:51:10;;;;;;;14.37;12.83;;;0.90;99.90;;;;;;5092162;28;20204;-64
2024/01/15 10:53:42;;;;;;;14.97;13.20;;;1.00;99.90;;;;;;5093225;28;20167;-63
2024/01/15 10:56:10;;;;;;;15.97;13.40;;;1.00;99.90;;;;;;5093134;28;20193;-63
2024/01/15 10:58:39;;;;;;;15.23;13.63;;;0.90;99.90;;;;;;5093016;28;20204;-63
2024/01/15 11:01:05;;;;;;;15.80;13.57;;;1.00;99.90;;;;;;5093256;28;20666;-63
2024/01/15 11:03:31;;;;;;;14.87;13.27;;;1.00;99.90;;;;;;5093383;28;20170;-63
2024/01/15 11:05:57;;;;;;;18.63;13.70;;;1.00;99.90;;;;;;5093013;28;20553;-63
2024/01/15 11:08:25;;;;;;;17.13;14.40;;;1.00;99.90;;;;;;5092753;28;20201;-63
2024/01/15 11:10:52;;;;;;;16.80;15.03;;;1.00;99.90;;;;;;5093071;28;20641;-64
2024/01/15 11:13:32;;;;;;;17.23;14.60;;;1.10;99.90;;;;;;5093042;28;20173;-63
2024/01/15 11:16:09;;;;;;;17.13;14.87;;;1.00;99.90;;;;;;5093249;28;20201;-64
2024/01/15 11:18:37;;;;;;;18.73;15.37;;;1.00;99.90;;;;;;5092797;28;20296;-63
2024/01/15 11:21:15;;;;;;;18.93;15.63;;;1.00;99.90;;;;;;5092982;28;20617;-63
2024/01/15 11:24:06;;;;;;;19.83;15.00;;;1.10;99.90;;;;;;5092974;28;20641;-64
2024/01/15 11:26:44;;;;;;;19.33;15.03;;;1.10;99.90;;;;;;5097187;28;20200;-64
2024/01/15 11:29:28;;;;;;;16.50;14.77;;;1.20;99.90;;;;;;5096973;28;20212;-63
2024/01/15 11:32:00;;;;;;;16.63;14.77;;;1.10;99.90;;;;;;5096799;28;20195;-64
2024/01/15 11:34:58;;;;;;;18.63;13.97;;;1.20;99.90;;;;;;5096812;28;20177;-64
2024/01/15 11:37:25;;;;;;;15.67;14.10;;;1.30;99.90;;;;;;5096676;28;20215;-63
2024/01/15 11:39:53;;;;;;;16.63;14.83;;;1.30;99.90;;;;;;5096531;28;20206;-63
2024/01/15 11:42:21;;;;;;;16.83;14.43;;;1.20;99.90;;;;;;5097176;28;20173;-63
2024/01/15 11:44:48;;;;;;;16.73;13.67;;;1.30;99.90;;;;;;5096989;28;20173;-63
2024/01/15 11:47:14;;;;;;;18.77;14.37;;;1.20;99.90;;;;;;5096461;28;20577;-64
2024/01/15 11:50:02;;;;;;;16.63;14.87;;;1.20;99.90;;;;;;5096555;28;20185;-63
2024/01/15 11:52:38;;;;;;;16.10;14.40;;;1.20;99.90;;;;;;5095178;28;20676;-64
2024/01/15 11:55:18;;;;;;;16.27;14.00;;;1.30;99.90;;;;;;5096217;28;20173;-64
2024/01/15 11:57:51;;;;;;;15.73;13.83;;;1.20;99.90;;;;;;5095058;28;20212;-64
2024/01/15 12:00:18;;;;;;;18.23;14.33;;;1.30;99.90;;;;;;5096305;28;20510;-64
2024/01/15 12:02:45;;;;;;;15.53;13.90;;;1.30;99.90;;;;;;5096257;28;20188;-64
2024/01/15 12:05:13;;;;;;;15.93;14.37;;;1.30;99.90;;;;;;5096595;28;20177;-63
2024/01/15 12:07:43;;;;;;;16.07;14.10;;;1.30;99.90;;;;;;5096085;28;20284;-63
2024/01/15 12:10:22;;;;;;;17.37;13.53;;;1.30;99.90;;;;;;5095868;28;20675;-64
2024/01/15 12:13:04;;;;;;;17.77;14.30;;;1.30;99.90;;;;;;5096438;28;20169;-64
2024/01/15 12:15:30;;;;;;;16.03;14.30;;;1.30;99.90;;;;;;5094863;28;20545;-63
2024/01/15 12:17:58;;;;;;;19.00;13.73;;;1.30;99.90;;;;;;5095785;28;20753;-65
2024/01/15 12:20:25;;;;;;;13.93;12.47;;;1.30;99.90;;;;;;5095860;28;20587;-63
2024/01/15 12:22:51;;;;;;;14.20;12.90;;;1.30;99.90;;;;;;5095928;28;20205;-64
2024/01/15 12:25:17;;;;;;;14.13;12.03;;;1.30;99.90;;;;;;5094259;28;20178;-64
2024/01/15 12:27:43;;;;;;;13.73;12.33;;;1.30;99.90;;;;;;5095828;28;20201;-64
2024/01/15 12:30:13;;;;;;;14.30;11.87;;;1.40;99.90;;;;;;5095704;28;20196;-65
2024/01/15 12:32:43;;;;;;;16.63;11.80;;;1.40;99.90;;;;;;5094355;28;20205;-64